Time;durP1;ratioP1;P1;durP2;ratioP2;P2;SDS_P1;SDS_P2;PMS_P1;PMS_P2;Temp;Humidity;BMP_temperature;BMP_pressure;BME280_temperature;BME280_humidity;BME280_pressure;Samples;Min_cycle;Max_cycle;Signal;HPM_P1;HPM_P2
2021/12/31 00:02:07;;;;;;;20.20;4.00;;;12.20;99.90;;;;;;5030948;28;20390;-49
2021/12/31 00:04:33;;;;;;;17.15;4.00;;;12.30;99.90;;;;;;5031150;28;20042;-50
2021/12/31 00:06:58;;;;;;;11.65;3.47;;;12.30;99.90;;;;;;5031266;28;20045;-52
2021/12/31 00:09:24;;;;;;;19.17;4.53;;;12.20;99.90;;;;;;5030914;28;20129;-52
2021/12/31 00:11:49;;;;;;;20.00;3.50;;;12.30;99.90;;;;;;5028974;28;20084;-52
2021/12/31 00:14:16;;;;;;;22.15;3.95;;;12.20;99.90;;;;;;5030778;28;20077;-50
2021/12/31 00:16:42;;;;;;;22.95;4.68;;;12.20;99.90;;;;;;5030774;28;20029;-48
2021/12/31 00:19:07;;;;;;;20.45;4.97;;;12.20;99.90;;;;;;5030914;28;20041;-52
2021/12/31 00:21:36;;;;;;;15.30;3.72;;;12.20;99.90;;;;;;5030820;28;20042;-51
2021/12/31 00:24:03;;;;;;;14.90;3.50;;;12.20;99.90;;;;;;5030275;28;20072;-52
2021/12/31 00:26:29;;;;;;;18.83;4.35;;;12.20;99.90;;;;;;5030645;28;20546;-49
2021/12/31 00:28:54;;;;;;;15.45;3.33;;;12.10;99.90;;;;;;5030555;28;20121;-50
2021/12/31 00:31:20;;;;;;;18.52;3.72;;;12.10;99.90;;;;;;5030443;28;20041;-51
2021/12/31 00:33:46;;;;;;;14.43;3.72;;;12.10;99.90;;;;;;5030617;28;20048;-51
2021/12/31 00:36:11;;;;;;;24.38;4.90;;;12.10;99.90;;;;;;5030810;28;20810;-49
2021/12/31 00:38:37;;;;;;;17.00;3.88;;;12.10;99.90;;;;;;5030671;28;20030;-50
2021/12/31 00:41:02;;;;;;;18.88;3.95;;;12.10;99.90;;;;;;5030305;28;20497;-50
2021/12/31 00:43:28;;;;;;;22.55;4.22;;;12.00;99.90;;;;;;5030423;28;20083;-50
2021/12/31 00:45:54;;;;;;;18.40;4.30;;;12.00;99.90;;;;;;5030356;28;20077;-50
2021/12/31 00:48:19;;;;;;;18.90;3.47;;;12.00;99.90;;;;;;5029131;28;20439;-49
2021/12/31 00:50:45;;;;;;;21.20;4.00;;;12.00;99.90;;;;;;5030528;28;20041;-51
2021/12/31 00:53:11;;;;;;;19.02;3.90;;;12.00;99.90;;;;;;5030083;28;20391;-51
2021/12/31 00:55:37;;;;;;;18.27;4.35;;;12.00;99.90;;;;;;5030250;28;20112;-52
2021/12/31 00:58:04;;;;;;;22.83;4.35;;;12.00;99.90;;;;;;5028896;28;20488;-49
2021/12/31 01:00:30;;;;;;;25.10;4.38;;;11.90;99.90;;;;;;5030054;28;20038;-52
2021/12/31 01:02:55;;;;;;;20.48;4.70;;;12.00;99.90;;;;;;5029810;28;20096;-51
2021/12/31 01:05:21;;;;;;;21.35;4.57;;;12.00;99.90;;;;;;5028896;28;20029;-52
2021/12/31 01:07:47;;;;;;;16.42;4.03;;;12.00;99.90;;;;;;5029968;28;20037;-49
2021/12/31 01:10:15;;;;;;;19.95;4.20;;;11.90;99.90;;;;;;5030018;28;20049;-51
2021/12/31 01:12:42;;;;;;;23.13;4.37;;;11.90;99.90;;;;;;5029907;28;20380;-51
2021/12/31 01:15:12;;;;;;;19.98;5.13;;;11.90;99.90;;;;;;5029740;28;20592;-52
2021/12/31 01:18:15;;;;;;;14.20;3.80;;;11.90;99.90;;;;;;5029851;28;20041;-50
2021/12/31 01:20:33;;;;;;;22.20;4.15;;;11.90;99.90;;;;;;5029576;28;20052;-50
2021/12/31 01:22:58;;;;;;;15.90;3.47;;;11.90;99.90;;;;;;5029212;28;20034;-49
2021/12/31 01:25:24;;;;;;;18.08;3.40;;;11.90;99.90;;;;;;5029688;28;20106;-51
2021/12/31 01:27:50;;;;;;;20.13;4.32;;;11.90;99.90;;;;;;5029856;28;20499;-52
2021/12/31 01:30:16;;;;;;;21.63;3.92;;;11.90;99.90;;;;;;5029872;28;20474;-52
2021/12/31 01:32:43;;;;;;;20.75;4.50;;;11.90;99.90;;;;;;5029535;28;20033;-52
2021/12/31 01:35:09;;;;;;;17.80;4.10;;;11.90;99.90;;;;;;5029646;28;20116;-51
2021/12/31 01:37:35;;;;;;;19.60;3.72;;;12.00;99.90;;;;;;5029450;28;20488;-52
2021/12/31 01:40:02;;;;;;;16.13;4.57;;;12.00;99.90;;;;;;5029475;28;20041;-52
2021/12/31 01:42:32;;;;;;;17.75;4.20;;;12.10;99.90;;;;;;5029511;28;20044;-52
2021/12/31 01:45:04;;;;;;;19.40;3.33;;;12.10;99.90;;;;;;5028584;28;20048;-52
2021/12/31 01:47:56;;;;;;;16.95;3.67;;;12.00;99.90;;;;;;5029343;28;20041;-50
2021/12/31 01:50:28;;;;;;;19.85;4.20;;;12.10;99.90;;;;;;5029170;28;20094;-51
2021/12/31 01:52:54;;;;;;;16.40;3.78;;;12.10;99.90;;;;;;5029345;28;20394;-49
2021/12/31 01:55:22;;;;;;;18.20;3.97;;;12.20;99.90;;;;;;5029526;28;20051;-51
2021/12/31 01:57:49;;;;;;;16.13;2.95;;;12.20;99.90;;;;;;5029409;28;20090;-49
2021/12/31 02:00:15;;;;;;;18.42;4.20;;;12.10;99.90;;;;;;5029032;28;20474;-47
2021/12/31 02:02:44;;;;;;;22.08;4.10;;;12.20;99.90;;;;;;5029252;28;20090;-51
2021/12/31 02:05:11;;;;;;;11.15;3.58;;;12.20;99.90;;;;;;5029089;28;20548;-52
2021/12/31 02:07:37;;;;;;;19.60;3.42;;;12.10;99.90;;;;;;5029279;28;20372;-51
2021/12/31 02:10:04;;;;;;;17.70;3.50;;;12.10;99.90;;;;;;5010821;28;20106;-50
2021/12/31 02:12:29;;;;;;;21.48;3.70;;;12.10;99.90;;;;;;5029180;28;20120;-50
2021/12/31 02:14:55;;;;;;;15.45;3.53;;;12.10;99.90;;;;;;5029132;28;20116;-49
2021/12/31 02:17:21;;;;;;;13.98;3.65;;;12.10;99.90;;;;;;5029415;28;20776;-52
2021/12/31 02:19:59;;;;;;;14.80;3.70;;;12.10;99.90;;;;;;5028949;28;20525;-53
2021/12/31 02:22:27;;;;;;;22.13;4.13;;;12.10;99.90;;;;;;5027603;28;20132;-52
2021/12/31 02:24:55;;;;;;;19.97;4.13;;;12.10;99.90;;;;;;5028698;28;20114;-52
2021/12/31 02:27:22;;;;;;;17.52;4.63;;;12.10;99.90;;;;;;5028908;28;20041;-52
2021/12/31 02:29:48;;;;;;;13.48;3.45;;;12.10;99.90;;;;;;5028900;28;20045;-50
2021/12/31 02:32:13;;;;;;;13.57;4.10;;;12.10;99.90;;;;;;5028752;28;20440;-52
2021/12/31 02:34:39;;;;;;;15.77;4.60;;;12.10;99.90;;;;;;5030696;28;20115;-53
2021/12/31 02:37:05;;;;;;;16.55;3.90;;;12.20;99.90;;;;;;5014233;28;20084;-52
2021/12/31 02:39:30;;;;;;;19.45;5.28;;;12.20;99.90;;;;;;5032201;28;20033;-52
2021/12/31 02:41:56;;;;;;;14.90;3.60;;;12.20;99.90;;;;;;5032204;28;20038;-52
2021/12/31 02:44:22;;;;;;;21.05;3.53;;;12.30;99.90;;;;;;5032012;28;20041;-51
2021/12/31 02:46:47;;;;;;;14.80;3.88;;;12.30;99.90;;;;;;5032186;28;20471;-52
2021/12/31 02:49:13;;;;;;;21.58;3.95;;;12.40;99.90;;;;;;5032523;28;20041;-51
2021/12/31 02:51:38;;;;;;;13.15;3.55;;;12.40;99.90;;;;;;5032396;28;20712;-50
2021/12/31 02:54:08;;;;;;;18.58;3.65;;;12.40;99.90;;;;;;5030682;28;20074;-50
2021/12/31 02:56:34;;;;;;;13.25;3.53;;;12.40;99.90;;;;;;5031001;28;20084;-48
2021/12/31 02:59:01;;;;;;;12.27;3.28;;;12.40;99.90;;;;;;5032026;28;20045;-51
2021/12/31 03:01:26;;;;;;;14.80;3.83;;;12.40;99.90;;;;;;5032122;28;20880;-51
2021/12/31 03:03:55;;;;;;;16.17;3.40;;;12.40;99.90;;;;;;5032136;28;20075;-50
2021/12/31 03:06:21;;;;;;;14.32;3.33;;;12.50;99.90;;;;;;5032399;28;20053;-50
2021/12/31 03:08:51;;;;;;;13.93;4.00;;;12.50;99.90;;;;;;5032003;28;20045;-52
2021/12/31 03:11:19;;;;;;;13.80;3.60;;;12.50;99.90;;;;;;5031802;28;20086;-48
2021/12/31 03:13:51;;;;;;;13.32;3.72;;;12.50;99.90;;;;;;5031656;28;20045;-51
2021/12/31 03:16:19;;;;;;;11.15;3.28;;;12.50;99.90;;;;;;5031984;28;20044;-51
2021/12/31 03:18:45;;;;;;;11.38;3.28;;;12.50;99.90;;;;;;5031459;28;20037;-51
2021/12/31 03:21:20;;;;;;;11.95;3.25;;;12.50;99.90;;;;;;5031749;28;20060;-51
2021/12/31 03:23:47;;;;;;;9.65;3.10;;;12.60;99.90;;;;;;5031176;28;20069;-50
2021/12/31 03:26:13;;;;;;;11.98;4.53;;;12.50;99.90;;;;;;5031476;28;20487;-51
2021/12/31 03:28:39;;;;;;;16.58;3.35;;;12.60;99.90;;;;;;5031391;28;20044;-52
2021/12/31 03:31:04;;;;;;;17.10;5.53;;;12.60;99.90;;;;;;5031651;28;20041;-50
2021/12/31 03:33:30;;;;;;;10.65;3.17;;;12.60;99.90;;;;;;5031537;28;20049;-51
2021/12/31 03:35:56;;;;;;;13.48;3.60;;;12.70;99.90;;;;;;5031527;28;20037;-48
2021/12/31 03:38:21;;;;;;;10.07;3.38;;;12.60;99.90;;;;;;5030297;28;20471;-50
2021/12/31 03:40:47;;;;;;;13.65;4.18;;;12.60;99.90;;;;;;5031353;28;20041;-52
2021/12/31 03:43:14;;;;;;;11.70;3.35;;;12.60;99.90;;;;;;5031529;28;20056;-52
2021/12/31 03:45:40;;;;;;;12.70;3.22;;;12.60;99.90;;;;;;5031058;28;20053;-51
2021/12/31 03:48:06;;;;;;;10.93;2.75;;;12.60;99.90;;;;;;5031315;28;20087;-48
2021/12/31 03:50:32;;;;;;;11.05;2.85;;;12.60;99.90;;;;;;5031079;28;20237;-50
2021/12/31 03:52:58;;;;;;;11.10;2.97;;;12.50;99.90;;;;;;5031094;28;20390;-52
2021/12/31 03:55:24;;;;;;;11.20;3.33;;;12.60;99.90;;;;;;5031004;28;20095;-51
2021/12/31 03:57:50;;;;;;;10.93;2.88;;;12.50;99.90;;;;;;5031313;28;20045;-48
2021/12/31 04:00:16;;;;;;;14.07;3.40;;;12.50;99.90;;;;;;5031470;28;20045;-49
2021/12/31 04:02:42;;;;;;;10.35;2.70;;;12.50;99.90;;;;;;5031254;28;20081;-52
2021/12/31 04:05:08;;;;;;;10.07;3.25;;;12.50;99.90;;;;;;5031126;28;20073;-52
2021/12/31 04:07:34;;;;;;;17.00;2.83;;;12.60;99.90;;;;;;5030925;28;20094;-52
2021/12/31 04:10:00;;;;;;;10.90;2.38;;;12.60;99.90;;;;;;5030857;28;20046;-50
2021/12/31 04:12:26;;;;;;;11.18;3.00;;;12.60;99.90;;;;;;5030841;28;20352;-52
2021/12/31 04:14:51;;;;;;;9.85;2.90;;;12.60;99.90;;;;;;5030924;28;20038;-52
2021/12/31 04:17:17;;;;;;;9.63;2.50;;;12.60;99.90;;;;;;5030943;28;20048;-50
2021/12/31 04:19:43;;;;;;;9.80;2.40;;;12.60;99.90;;;;;;5030833;28;20464;-48
2021/12/31 04:22:12;;;;;;;12.55;3.15;;;12.70;99.90;;;;;;5030937;28;20070;-49
2021/12/31 04:24:55;;;;;;;;;;;12.60;99.90;;;;;;5030926;28;20110;-47
2021/12/31 04:27:22;;;;;;;18.92;3.22;;;12.70;99.90;;;;;;5030921;28;20313;-52
2021/12/31 04:29:51;;;;;;;13.38;3.13;;;12.70;99.90;;;;;;5030623;28;20138;-50
2021/12/31 04:32:18;;;;;;;15.80;3.03;;;12.70;99.90;;;;;;5030420;28;20038;-51
2021/12/31 04:34:44;;;;;;;11.55;2.97;;;12.70;99.90;;;;;;5030451;28;20073;-52
2021/12/31 04:37:10;;;;;;;9.25;2.97;;;12.70;99.90;;;;;;5030378;28;20114;-53
2021/12/31 04:39:36;;;;;;;14.73;3.72;;;12.80;99.90;;;;;;5030200;28;20463;-51
2021/12/31 04:42:02;;;;;;;7.13;2.28;;;12.60;99.90;;;;;;5030517;28;20192;-52
2021/12/31 04:44:29;;;;;;;12.07;3.22;;;12.70;99.90;;;;;;5030461;28;20167;-52
2021/12/31 04:46:55;;;;;;;9.75;2.40;;;12.80;99.90;;;;;;5030435;28;20037;-50
2021/12/31 04:49:21;;;;;;;9.75;2.33;;;12.80;99.90;;;;;;5029177;28;20037;-52
2021/12/31 04:51:46;;;;;;;12.32;2.80;;;12.70;99.90;;;;;;5030200;28;20044;-52
2021/12/31 04:54:16;;;;;;;10.52;2.30;;;12.80;99.90;;;;;;5030149;28;20041;-53
2021/12/31 04:56:43;;;;;;;7.63;2.53;;;12.80;99.90;;;;;;5029054;28;20053;-49
2021/12/31 04:59:10;;;;;;;9.23;2.65;;;12.80;99.90;;;;;;5030181;28;20513;-48
2021/12/31 05:01:36;;;;;;;10.13;2.58;;;12.90;99.90;;;;;;5030068;28;20124;-51
2021/12/31 05:04:02;;;;;;;7.63;2.90;;;12.90;99.90;;;;;;5030059;28;20124;-51
2021/12/31 05:06:28;;;;;;;10.13;2.70;;;12.90;99.90;;;;;;5030025;28;20052;-52
2021/12/31 05:08:53;;;;;;;8.07;3.33;;;12.80;99.90;;;;;;5029959;28;20037;-51
2021/12/31 05:11:19;;;;;;;9.98;2.95;;;12.80;99.90;;;;;;5030030;28;20071;-51
2021/12/31 05:13:46;;;;;;;5.97;2.70;;;12.70;99.90;;;;;;5030223;28;20037;-52
2021/12/31 05:16:12;;;;;;;9.77;2.55;;;12.70;99.90;;;;;;5030220;28;20045;-52
2021/12/31 05:18:37;;;;;;;7.43;2.20;;;12.60;99.90;;;;;;5029788;28;20025;-51
2021/12/31 05:21:04;;;;;;;9.82;2.25;;;12.60;99.90;;;;;;5029737;28;20050;-51
2021/12/31 05:23:29;;;;;;;4.95;2.30;;;12.70;99.90;;;;;;5029795;28;20088;-49
2021/12/31 05:25:55;;;;;;;6.65;2.42;;;12.60;99.90;;;;;;5029932;28;20448;-52
2021/12/31 05:28:21;;;;;;;7.18;2.40;;;12.60;99.90;;;;;;5029787;28;20053;-52
2021/12/31 05:30:46;;;;;;;14.52;2.88;;;12.60;99.90;;;;;;5029530;28;20044;-52
2021/12/31 05:33:12;;;;;;;10.00;3.03;;;12.50;99.90;;;;;;5029502;28;20070;-52
2021/12/31 05:35:37;;;;;;;11.85;3.28;;;12.50;99.90;;;;;;5029586;28;20077;-53
2021/12/31 05:38:03;;;;;;;8.75;2.83;;;12.50;99.90;;;;;;5029578;28;20483;-49
2021/12/31 05:40:29;;;;;;;8.75;2.60;;;12.50;99.90;;;;;;5029597;28;20067;-51
2021/12/31 05:42:54;;;;;;;5.10;2.40;;;12.50;99.90;;;;;;5027821;28;20521;-51
2021/12/31 05:45:20;;;;;;;8.93;2.83;;;12.50;99.90;;;;;;5011558;28;20491;-52
2021/12/31 05:47:47;;;;;;;11.43;2.95;;;12.40;99.90;;;;;;5029471;28;20059;-51
2021/12/31 05:50:28;;;;;;;9.70;2.97;;;12.40;99.90;;;;;;5029423;28;20048;-52
2021/12/31 05:52:58;;;;;;;6.50;2.58;;;12.50;99.90;;;;;;5029466;28;20041;-50
2021/12/31 05:55:24;;;;;;;3.33;2.08;;;12.50;99.90;;;;;;5029615;28;20098;-52
2021/12/31 05:57:50;;;;;;;6.57;2.50;;;12.50;99.90;;;;;;5029514;28;20039;-52
2021/12/31 06:00:16;;;;;;;6.10;2.63;;;12.50;99.90;;;;;;5029705;28;20041;-50
2021/12/31 06:02:42;;;;;;;5.53;2.40;;;12.60;99.90;;;;;;5029157;28;20045;-52
2021/12/31 06:05:08;;;;;;;5.72;2.97;;;12.60;99.90;;;;;;5029212;28;20037;-51
2021/12/31 06:07:33;;;;;;;8.70;2.30;;;12.60;99.90;;;;;;5028983;28;20037;-53
2021/12/31 06:09:59;;;;;;;7.82;2.42;;;12.70;99.90;;;;;;5029225;28;20046;-50
2021/12/31 06:12:25;;;;;;;11.18;2.83;;;12.70;99.90;;;;;;5029063;28;20038;-50
2021/12/31 06:14:58;;;;;;;8.90;2.65;;;12.70;99.90;;;;;;5029046;28;20041;-52
2021/12/31 06:17:26;;;;;;;6.43;2.70;;;12.70;99.90;;;;;;5029306;28;20088;-52
2021/12/31 06:19:53;;;;;;;9.50;2.97;;;12.70;99.90;;;;;;5029006;28;20439;-49
2021/12/31 06:22:20;;;;;;;5.65;2.45;;;12.80;99.90;;;;;;5029263;28;20053;-52
2021/12/31 06:24:45;;;;;;;7.65;2.63;;;12.70;99.90;;;;;;5028753;28;20057;-52
2021/12/31 06:27:11;;;;;;;9.43;2.33;;;12.80;99.90;;;;;;5029162;28;20041;-53
2021/12/31 06:29:36;;;;;;;8.23;2.67;;;12.80;99.90;;;;;;5028712;28;20048;-52
2021/12/31 06:32:02;;;;;;;4.07;1.95;;;12.80;99.90;;;;;;5028864;28;20467;-52
2021/12/31 06:34:28;;;;;;;6.18;2.55;;;12.80;99.90;;;;;;5029041;28;20479;-51
2021/12/31 06:36:54;;;;;;;7.45;3.10;;;12.70;99.90;;;;;;5027779;28;20471;-50
2021/12/31 06:39:19;;;;;;;7.68;3.17;;;12.70;99.90;;;;;;5028712;28;20042;-52
2021/12/31 06:41:45;;;;;;;6.18;2.60;;;12.70;99.90;;;;;;5028593;28;20498;-50
2021/12/31 06:44:11;;;;;;;3.55;2.22;;;12.70;99.90;;;;;;5028562;28;20038;-49
2021/12/31 06:46:36;;;;;;;7.32;2.80;;;12.70;99.90;;;;;;5028881;28;20385;-53
2021/12/31 06:49:02;;;;;;;4.53;2.42;;;12.70;99.90;;;;;;5028679;28;20145;-50
2021/12/31 06:51:27;;;;;;;5.40;2.13;;;12.80;99.90;;;;;;5028291;28;20041;-49
2021/12/31 06:53:53;;;;;;;5.85;2.65;;;12.60;99.90;;;;;;5028336;28;20042;-48
2021/12/31 06:56:19;;;;;;;8.68;3.40;;;12.60;99.90;;;;;;5028712;28;20041;-49
2021/12/31 06:58:44;;;;;;;7.55;3.10;;;12.60;99.90;;;;;;5028592;28;20793;-52
2021/12/31 07:01:10;;;;;;;8.00;2.40;;;12.60;99.90;;;;;;5026775;28;20092;-51
2021/12/31 07:03:36;;;;;;;5.88;2.58;;;12.60;99.90;;;;;;5028612;28;20037;-52
2021/12/31 07:06:02;;;;;;;8.18;3.22;;;12.60;99.90;;;;;;5028495;28;20517;-49
2021/12/31 07:08:28;;;;;;;6.85;2.45;;;12.50;99.90;;;;;;5028449;28;20037;-51
2021/12/31 07:10:53;;;;;;;6.63;2.50;;;12.60;99.90;;;;;;5028304;28;20440;-47
2021/12/31 07:13:19;;;;;;;5.13;2.30;;;12.50;99.90;;;;;;5028216;28;20074;-52
2021/12/31 07:15:48;;;;;;;9.52;2.55;;;12.50;99.90;;;;;;5028605;28;20042;-51
2021/12/31 07:18:14;;;;;;;6.10;2.58;;;12.50;99.90;;;;;;5028400;28;20428;-49
2021/12/31 07:20:41;;;;;;;6.38;2.70;;;12.50;99.90;;;;;;5030193;28;20033;-51
2021/12/31 07:23:09;;;;;;;5.70;2.65;;;12.50;99.90;;;;;;5031492;28;20048;-51
2021/12/31 07:25:35;;;;;;;6.63;2.15;;;12.50;99.90;;;;;;5031630;28;20133;-51
2021/12/31 07:28:02;;;;;;;6.13;2.40;;;12.50;99.90;;;;;;5030519;28;20041;-52
2021/12/31 07:30:28;;;;;;;5.25;2.28;;;12.50;99.90;;;;;;5031516;28;20048;-50
2021/12/31 07:32:53;;;;;;;11.02;2.38;;;12.50;99.90;;;;;;5031470;28;20041;-50
2021/12/31 07:35:20;;;;;;;3.08;2.10;;;12.50;99.90;;;;;;5031528;28;20033;-52
2021/12/31 07:37:45;;;;;;;6.95;2.47;;;12.40;99.90;;;;;;5031307;28;20542;-51
2021/12/31 07:40:12;;;;;;;5.57;2.10;;;12.40;99.90;;;;;;5031170;28;20037;-52
2021/12/31 07:42:39;;;;;;;5.88;2.25;;;12.40;99.90;;;;;;5031268;28;20049;-51
2021/12/31 07:45:06;;;;;;;4.88;2.25;;;12.40;99.90;;;;;;5031218;28;20037;-51
2021/12/31 07:47:32;;;;;;;4.60;2.70;;;12.40;99.90;;;;;;5031210;28;20073;-51
2021/12/31 07:49:58;;;;;;;7.28;2.13;;;12.40;99.90;;;;;;5031253;28;20090;-50
2021/12/31 07:52:24;;;;;;;4.47;2.40;;;12.40;99.90;;;;;;5031153;28;20033;-52
2021/12/31 07:54:49;;;;;;;5.15;2.53;;;12.50;99.90;;;;;;5031108;28;20074;-51
2021/12/31 07:57:15;;;;;;;3.45;1.90;;;12.40;99.90;;;;;;5029753;28;20038;-51
2021/12/31 07:59:41;;;;;;;8.10;2.20;;;12.50;99.90;;;;;;5031153;28;20040;-50
2021/12/31 08:02:07;;;;;;;9.93;2.65;;;12.50;99.90;;;;;;5031271;28;20038;-50
2021/12/31 08:04:33;;;;;;;4.72;2.10;;;12.50;99.90;;;;;;5031192;28;20818;-51
2021/12/31 08:07:00;;;;;;;5.05;2.50;;;12.50;99.90;;;;;;5031190;28;20077;-51
2021/12/31 08:09:25;;;;;;;3.85;2.05;;;12.50;99.90;;;;;;5031012;28;20034;-52
2021/12/31 08:11:51;;;;;;;5.38;2.05;;;12.40;99.90;;;;;;5030619;28;20086;-48
2021/12/31 08:14:17;;;;;;;6.43;2.30;;;12.40;99.90;;;;;;5030884;28;20124;-49
2021/12/31 08:16:42;;;;;;;4.72;2.10;;;12.50;99.90;;;;;;5030718;28;20046;-51
2021/12/31 08:19:08;;;;;;;7.18;2.20;;;12.50;99.90;;;;;;5030802;28;20041;-52
2021/12/31 08:21:34;;;;;;;6.60;1.80;;;12.50;99.90;;;;;;5030712;28;20042;-51
2021/12/31 08:24:00;;;;;;;7.28;2.22;;;12.50;99.90;;;;;;5030651;28;20045;-52
2021/12/31 08:26:26;;;;;;;6.40;2.35;;;12.50;99.90;;;;;;5030612;28;20128;-52
2021/12/31 08:28:52;;;;;;;7.90;2.83;;;12.50;99.90;;;;;;5030833;28;20125;-53
2021/12/31 08:31:17;;;;;;;4.50;2.03;;;12.50;99.90;;;;;;5029467;28;20044;-53
2021/12/31 08:33:43;;;;;;;3.20;1.80;;;12.50;99.90;;;;;;5030533;28;20083;-48
2021/12/31 08:36:09;;;;;;;6.93;2.70;;;12.50;99.90;;;;;;5030376;28;20034;-52
2021/12/31 08:38:34;;;;;;;5.72;2.33;;;12.60;99.90;;;;;;5030239;28;20483;-50
2021/12/31 08:41:01;;;;;;;5.38;2.38;;;12.60;99.90;;;;;;5030088;28;20507;-52
2021/12/31 08:43:27;;;;;;;10.43;2.65;;;12.60;99.90;;;;;;5030522;28;20065;-50
2021/12/31 08:45:53;;;;;;;7.97;2.67;;;12.60;99.90;;;;;;5030376;28;20525;-49
2021/12/31 08:48:19;;;;;;;5.72;2.35;;;12.60;99.90;;;;;;5030466;28;20041;-50
2021/12/31 08:50:45;;;;;;;8.57;2.50;;;12.70;99.90;;;;;;5030387;28;20148;-50
2021/12/31 08:53:11;;;;;;;7.35;2.72;;;12.60;99.90;;;;;;5030291;28;20120;-52
2021/12/31 08:55:37;;;;;;;7.00;2.42;;;12.60;99.90;;;;;;5030142;28;20121;-51
2021/12/31 08:58:03;;;;;;;5.80;2.40;;;12.60;99.90;;;;;;5029996;28;20120;-52
2021/12/31 09:00:29;;;;;;;5.00;2.30;;;12.60;99.90;;;;;;5030051;28;20037;-51
2021/12/31 09:02:55;;;;;;;5.85;2.50;;;12.60;99.90;;;;;;5030098;28;20041;-51
2021/12/31 09:05:22;;;;;;;4.07;2.40;;;12.60;99.90;;;;;;5029863;28;20443;-49
2021/12/31 09:07:48;;;;;;;4.45;2.78;;;12.60;99.90;;;;;;5029829;28;20041;-49
2021/12/31 09:10:14;;;;;;;7.82;2.35;;;12.60;99.90;;;;;;5029813;28;20045;-52
2021/12/31 09:12:40;;;;;;;6.55;2.70;;;12.60;99.90;;;;;;5029845;28;20087;-52
2021/12/31 09:15:06;;;;;;;5.60;2.70;;;12.70;99.90;;;;;;5028707;28;20037;-52
2021/12/31 09:17:32;;;;;;;6.18;2.47;;;12.60;99.90;;;;;;5029807;28;20044;-50
2021/12/31 09:19:57;;;;;;;6.18;2.53;;;12.50;99.90;;;;;;5029718;28;20042;-49
2021/12/31 09:22:25;;;;;;;13.50;3.30;;;12.50;99.90;;;;;;5029891;28;20041;-52
2021/12/31 09:24:50;;;;;;;5.45;2.40;;;12.50;99.90;;;;;;5029560;28;20406;-51
2021/12/31 09:27:16;;;;;;;4.88;2.50;;;12.50;99.90;;;;;;5029629;28;20041;-52
2021/12/31 09:29:42;;;;;;;7.13;2.78;;;12.50;99.90;;;;;;5029625;28;20123;-51
2021/12/31 09:32:08;;;;;;;6.75;3.13;;;12.40;99.90;;;;;;5029588;28;20063;-52
2021/12/31 09:34:34;;;;;;;5.90;2.47;;;12.50;99.90;;;;;;5029631;28;20479;-52
2021/12/31 09:37:00;;;;;;;6.10;2.90;;;12.50;99.90;;;;;;5029521;28;20399;-52
2021/12/31 09:39:25;;;;;;;8.25;2.80;;;12.50;99.90;;;;;;5029722;28;20033;-51
2021/12/31 09:41:51;;;;;;;6.57;2.85;;;12.50;99.90;;;;;;5029974;28;20044;-49
2021/12/31 09:44:20;;;;;;;7.72;2.60;;;12.50;99.90;;;;;;5028990;28;20048;-52
2021/12/31 09:46:45;;;;;;;37.20;29.70;;;12.50;99.90;;;;;;5029531;28;20050;-50
2021/12/31 09:49:11;;;;;;;8.32;2.67;;;12.60;99.90;;;;;;5029476;28;20030;-51
2021/12/31 09:51:41;;;;;;;6.10;3.65;;;12.60;99.90;;;;;;5029122;28;20080;-51
2021/12/31 09:54:08;;;;;;;8.05;2.63;;;12.50;99.90;;;;;;5029480;28;20050;-51
2021/12/31 09:56:39;;;;;;;10.10;2.55;;;12.50;99.90;;;;;;5029481;28;20044;-51
2021/12/31 09:59:05;;;;;;;6.18;2.72;;;12.40;99.90;;;;;;5029306;28;20038;-50
2021/12/31 10:01:31;;;;;;;7.78;2.40;;;12.40;99.90;;;;;;5029178;28;20041;-52
2021/12/31 10:04:00;;;;;;;8.18;3.17;;;12.30;99.90;;;;;;5029262;28;20447;-52
2021/12/31 10:06:26;;;;;;;;;;;12.30;99.90;;;;;;5029544;28;20068;-51
2021/12/31 10:08:53;;;;;;;8.85;3.60;;;12.20;99.90;;;;;;5029249;28;20370;-51
2021/12/31 10:11:20;;;;;;;8.10;3.42;;;12.10;99.90;;;;;;5029194;28;20387;-52
2021/12/31 10:13:51;;;;;;;6.05;3.13;;;12.10;99.90;;;;;;5029200;28;20045;-53
2021/12/31 10:16:20;;;;;;;7.82;3.40;;;12.00;99.90;;;;;;5028972;28;20037;-52
2021/12/31 10:18:46;;;;;;;10.25;3.05;;;12.00;99.90;;;;;;5029291;28;20041;-51
2021/12/31 10:21:11;;;;;;;6.85;2.90;;;12.10;99.90;;;;;;5029150;28;20494;-53
2021/12/31 10:23:38;;;;;;;5.45;3.35;;;12.00;99.90;;;;;;5028828;28;20148;-53
2021/12/31 10:26:10;;;;;;;10.63;3.47;;;12.10;99.90;;;;;;5028999;28;20049;-50
2021/12/31 10:28:36;;;;;;;11.05;3.50;;;12.10;99.90;;;;;;5016808;28;20042;-52
2021/12/31 10:31:13;;;;;;;6.93;3.65;;;12.00;99.90;;;;;;4998609;28;20281;-52
2021/12/31 10:33:44;;;;;;;9.25;3.03;;;12.00;99.90;;;;;;4999384;28;20045;-52
2021/12/31 10:36:37;;;;;;;10.15;3.00;;;11.90;99.90;;;;;;4999589;28;20048;-52
2021/12/31 10:39:26;;;;;;;8.65;3.08;;;12.00;99.90;;;;;;5003260;28;20067;-52
2021/12/31 10:42:05;;;;;;;11.48;3.00;;;12.00;99.90;;;;;;4989242;28;20438;-52
2021/12/31 10:44:53;;;;;;;8.35;3.28;;;12.00;99.90;;;;;;4992362;28;20046;-51
2021/12/31 10:47:28;;;;;;;7.20;2.90;;;11.90;99.90;;;;;;5008257;28;20078;-52
2021/12/31 10:50:02;;;;;;;8.38;3.58;;;11.90;99.90;;;;;;5008866;28;20046;-50
2021/12/31 10:53:08;;;;;;;6.63;3.40;;;12.00;99.90;;;;;;5009048;28;20042;-50
2021/12/31 10:55:39;;;;;;;8.35;3.10;;;11.90;99.90;;;;;;5010554;28;20038;-50
2021/12/31 10:58:09;;;;;;;9.25;3.85;;;11.90;99.90;;;;;;5012156;28;20045;-51
2021/12/31 11:00:37;;;;;;;8.00;3.40;;;11.90;99.90;;;;;;5010711;28;20390;-48
2021/12/31 11:03:04;;;;;;;8.50;3.30;;;11.90;99.90;;;;;;5012400;28;20888;-50
2021/12/31 11:05:29;;;;;;;7.38;4.10;;;11.90;99.90;;;;;;5012095;28;20052;-48
2021/12/31 11:08:01;;;;;;;9.77;3.72;;;11.90;99.90;;;;;;5011977;28;20037;-48
2021/12/31 11:10:35;;;;;;;10.95;4.20;;;11.90;99.90;;;;;;5012177;28;20049;-52
2021/12/31 11:13:06;;;;;;;10.85;4.55;;;11.90;99.90;;;;;;5011915;28;20045;-53
2021/12/31 11:15:32;;;;;;;10.55;3.90;;;11.90;99.90;;;;;;5012158;28;20038;-52
2021/12/31 11:17:58;;;;;;;10.80;4.63;;;11.90;99.90;;;;;;5011914;28;20506;-50
2021/12/31 11:20:24;;;;;;;10.27;4.72;;;11.90;99.90;;;;;;5011977;28;20051;-52
2021/12/31 11:22:51;;;;;;;13.65;4.07;;;11.80;99.90;;;;;;5012184;28;20117;-50
2021/12/31 11:25:17;;;;;;;10.07;4.47;;;11.80;99.90;;;;;;5010513;28;20054;-50
2021/12/31 11:27:45;;;;;;;9.70;4.22;;;11.80;99.90;;;;;;5011125;28;20065;-53
2021/12/31 11:30:39;;;;;;;11.07;3.97;;;11.70;99.90;;;;;;5011709;28;20049;-51
2021/12/31 11:33:14;;;;;;;10.00;4.15;;;11.80;99.90;;;;;;5011768;28;20426;-51
2021/12/31 11:36:02;;;;;;;14.85;4.43;;;11.80;99.90;;;;;;5011599;28;20038;-52
2021/12/31 11:38:28;;;;;;;12.30;4.70;;;11.80;99.90;;;;;;5010314;28;20046;-51
2021/12/31 11:41:08;;;;;;;16.52;5.32;;;11.80;99.90;;;;;;5011684;28;20560;-51
2021/12/31 11:43:37;;;;;;;8.82;4.35;;;11.80;99.90;;;;;;5012000;28;20042;-51
2021/12/31 11:46:05;;;;;;;;;;;11.80;99.90;;;;;;5031626;28;20499;-51
2021/12/31 11:48:49;;;;;;;6.53;4.25;;;11.70;99.90;;;;;;5031035;28;19917;-49
2021/12/31 11:51:18;;;;;;;13.15;4.90;;;11.70;99.90;;;;;;5027677;28;20052;-47
2021/12/31 11:53:56;;;;;;;9.20;4.10;;;11.60;99.90;;;;;;5014480;28;20045;-52
2021/12/31 11:56:36;;;;;;;12.30;4.35;;;11.70;99.90;;;;;;5007978;28;20058;-51
2021/12/31 11:59:08;;;;;;;9.73;4.30;;;11.60;99.90;;;;;;4992507;28;20045;-50
2021/12/31 12:01:39;;;;;;;13.27;4.25;;;11.60;99.90;;;;;;5003907;28;20040;-52
2021/12/31 12:04:22;;;;;;;12.38;4.75;;;11.60;99.90;;;;;;5010977;28;20064;-50
2021/12/31 12:07:09;;;;;;;8.73;4.05;;;11.50;99.90;;;;;;5010482;28;20102;-50
2021/12/31 12:09:38;;;;;;;7.35;4.00;;;11.50;99.90;;;;;;5011074;28;20050;-50
2021/12/31 12:12:10;;;;;;;10.38;4.80;;;11.50;99.90;;;;;;4995622;28;20519;-50
2021/12/31 12:14:45;;;;;;;8.82;4.80;;;11.50;99.90;;;;;;4994943;28;20422;-50
2021/12/31 12:17:43;;;;;;;10.32;4.70;;;11.50;99.90;;;;;;4991505;28;20042;-50
2021/12/31 12:20:13;;;;;;;9.95;5.10;;;11.50;99.90;;;;;;5011936;28;20086;-49
2021/12/31 12:22:51;;;;;;;7.68;4.75;;;11.50;99.90;;;;;;5011941;28;20120;-48
2021/12/31 12:25:24;;;;;;;5.50;3.40;;;11.50;99.90;;;;;;5011672;28;20107;-50
2021/12/31 12:28:03;;;;;;;8.32;4.07;;;11.50;99.90;;;;;;5011771;28;20520;-51
2021/12/31 12:30:29;;;;;;;;;;;11.50;99.90;;;;;;5012183;28;20492;-46
2021/12/31 12:35:40;;;;;;;7.65;4.03;;;11.50;99.90;;;;;;5029315;28;20396;-52
2021/12/31 12:38:19;;;;;;;9.50;4.05;;;11.60;99.90;;;;;;5031322;28;20586;-51
2021/12/31 12:40:47;;;;;;;9.02;3.78;;;11.50;99.90;;;;;;5031453;28;20045;-50
2021/12/31 12:43:32;;;;;;;8.15;4.22;;;11.50;99.90;;;;;;5031268;28;20060;-51
2021/12/31 12:46:03;;;;;;;7.70;4.80;;;11.50;99.90;;;;;;5014975;28;20050;-51
2021/12/31 12:48:37;;;;;;;8.70;4.70;;;11.60;99.90;;;;;;5031246;28;20041;-52
2021/12/31 12:51:09;;;;;;;8.50;4.22;;;11.50;99.90;;;;;;5031142;28;20124;-51